createdAt,value
2019-05-30T00:00:34.221Z,74.55
2019-05-30T00:03:04.368Z,74.60
2019-05-30T00:05:33.927Z,74.54
2019-05-30T00:08:04.427Z,74.56
2019-05-30T00:10:33.828Z,74.67
2019-05-30T00:13:03.275Z,74.57
2019-05-30T00:15:32.639Z,74.66
2019-05-30T00:18:02.921Z,74.27
2019-05-30T00:20:32.363Z,74.15
2019-05-30T00:23:01.918Z,74.31
2019-05-30T00:25:31.299Z,74.21
2019-05-30T00:28:05.345Z,74.39
2019-05-30T00:30:35.316Z,74.48
2019-05-30T00:33:05.212Z,74.55
2019-05-30T00:35:34.734Z,74.64
2019-05-30T00:38:04.182Z,74.46
2019-05-30T00:40:33.661Z,74.54
2019-05-30T00:43:04.220Z,74.41
2019-05-30T00:45:33.714Z,74.08
2019-05-30T00:48:04.271Z,74.30
2019-05-30T00:50:33.812Z,74.37
2019-05-30T00:53:03.249Z,74.07
2019-05-30T00:55:32.644Z,73.96
2019-05-30T00:58:02.777Z,74.04
2019-05-30T01:00:42.725Z,74.23
2019-05-30T01:03:04.930Z,74.23
2019-05-30T01:05:34.561Z,74.19
2019-05-30T01:08:05.071Z,74.35
2019-05-30T01:10:34.804Z,74.48
2019-05-30T01:13:05.192Z,74.72
2019-05-30T01:15:34.660Z,74.88
2019-05-30T01:18:05.294Z,75.24
2019-05-30T01:20:34.814Z,75.24
2019-05-30T01:23:05.361Z,75.08
2019-05-30T01:25:34.786Z,75.15
2019-05-30T01:28:05.580Z,74.99
2019-05-30T01:30:35.043Z,75.06
2019-05-30T01:33:05.766Z,75.09
2019-05-30T01:35:35.304Z,75.51
2019-05-30T01:38:06.060Z,75.83
2019-05-30T01:40:35.573Z,75.80
2019-05-30T01:43:06.188Z,75.73
2019-05-30T01:45:35.626Z,75.63
2019-05-30T01:48:06.342Z,75.78
2019-05-30T01:50:36.206Z,75.99
2019-05-30T01:53:06.702Z,75.85
2019-05-30T01:55:36.186Z,75.66
2019-05-30T01:58:07.236Z,75.72
2019-05-30T02:00:39.181Z,76.00
2019-05-30T02:03:09.800Z,76.24
2019-05-30T02:05:39.384Z,76.45
2019-05-30T02:08:10.119Z,76.73
2019-05-30T02:10:39.786Z,77.00
2019-05-30T02:13:09.825Z,77.17
2019-05-30T02:15:39.492Z,77.25
2019-05-30T02:18:09.967Z,77.24
2019-05-30T02:20:39.771Z,77.48
2019-05-30T02:23:11.270Z,77.74
2019-05-30T02:25:40.280Z,78.02
2019-05-30T02:28:10.407Z,78.12
2019-05-30T02:30:39.933Z,78.42
2019-05-30T02:33:11.367Z,78.31
2019-05-30T02:35:41.265Z,78.24
2019-05-30T02:38:11.854Z,78.26
2019-05-30T02:40:41.561Z,78.12
2019-05-30T02:43:12.043Z,77.89
2019-05-30T02:45:41.876Z,77.98
2019-05-30T02:48:12.220Z,78.01
2019-05-30T02:50:42.452Z,77.90
2019-05-30T02:53:13.131Z,78.00
2019-05-30T02:55:43.106Z,77.80
2019-05-30T02:58:13.169Z,77.56
2019-05-30T03:00:43.022Z,77.33
2019-05-30T03:03:14.479Z,77.48
2019-05-30T03:05:43.650Z,77.42
2019-05-30T03:08:14.355Z,77.18
2019-05-30T03:10:44.381Z,77.22
2019-05-30T03:13:14.017Z,77.07
2019-05-30T03:15:43.642Z,77.01
2019-05-30T03:18:14.983Z,76.90
2019-05-30T03:20:44.803Z,77.30
2019-05-30T03:23:14.988Z,77.23
2019-05-30T03:25:44.686Z,77.44
2019-05-30T03:28:14.330Z,77.56
2019-05-30T03:30:46.128Z,77.56
2019-05-30T03:33:35.993Z,77.71
2019-05-30T03:35:46.932Z,77.93
2019-05-30T03:38:16.451Z,77.86
2019-05-30T03:40:46.343Z,77.64
2019-05-30T03:43:16.219Z,78.16
2019-05-30T03:45:46.192Z,78.13
2019-05-30T03:48:18.334Z,78.21
2019-05-30T03:50:50.800Z,78.28
2019-05-30T03:53:22.219Z,77.90
2019-05-30T03:55:54.674Z,77.55
2019-05-30T03:58:45.271Z,77.44
2019-05-30T04:01:18.679Z,77.24
2019-05-30T04:04:00.546Z,77.11
2019-05-30T04:06:33.014Z,77.00
2019-05-30T04:09:07.826Z,76.46
2019-05-30T04:11:56.186Z,76.21
2019-05-30T04:14:28.374Z,76.04
2019-05-30T04:16:57.783Z,76.27
2019-05-30T04:19:27.182Z,76.58
2019-05-30T04:21:56.599Z,76.55
2019-05-30T04:24:25.982Z,76.47
2019-05-30T04:26:55.446Z,76.98
2019-05-30T04:29:24.991Z,77.02
2019-05-30T04:31:54.414Z,76.42
2019-05-30T04:34:23.804Z,76.04
2019-05-30T04:36:53.865Z,75.55
2019-05-30T04:39:23.815Z,75.77
2019-05-30T04:41:53.223Z,75.67
2019-05-30T04:44:22.685Z,75.38
2019-05-30T04:46:52.098Z,75.27
2019-05-30T04:49:21.780Z,75.17
2019-05-30T04:51:51.299Z,75.14
2019-05-30T04:54:21.440Z,74.97
2019-05-30T04:56:50.997Z,74.14
2019-05-30T04:59:21.924Z,73.90
2019-05-30T05:01:51.802Z,73.44
2019-05-30T05:04:21.786Z,73.27
2019-05-30T05:06:51.411Z,72.52
2019-05-30T05:09:22.386Z,72.45
2019-05-30T05:11:51.964Z,72.12
2019-05-30T05:14:22.743Z,71.39
2019-05-30T05:16:52.242Z,70.89
2019-05-30T05:19:23.095Z,70.72
2019-05-30T05:21:52.847Z,70.08
2019-05-30T05:24:23.528Z,69.47
2019-05-30T05:26:53.055Z,68.50
2019-05-30T05:29:22.472Z,68.20
2019-05-30T05:31:52.084Z,66.03
2019-05-30T05:34:22.706Z,66.45
2019-05-30T05:36:52.236Z,65.98
2019-05-30T05:39:22.206Z,66.21
2019-05-30T05:41:51.728Z,65.16
2019-05-30T05:44:22.369Z,65.18
2019-05-30T05:46:51.934Z,64.70
2019-05-30T05:49:22.536Z,62.59
2019-05-30T05:51:52.150Z,63.67
2019-05-30T05:54:22.880Z,63.90
2019-05-30T05:56:52.451Z,64.50
2019-05-30T05:59:22.804Z,64.86
2019-05-30T06:01:52.455Z,64.41
2019-05-30T06:04:21.847Z,64.64
2019-05-30T06:06:51.260Z,60.79
2019-05-30T06:09:20.710Z,61.57
2019-05-30T06:11:50.066Z,60.80
2019-05-30T06:14:19.862Z,59.75
2019-05-30T06:16:49.360Z,59.57
2019-05-30T06:19:19.095Z,60.34
2019-05-30T06:21:54.069Z,59.40
2019-05-30T06:24:19.929Z,58.81
2019-05-30T06:26:49.352Z,58.67
2019-05-30T06:29:20.008Z,58.28
2019-05-30T06:31:49.640Z,56.81
2019-05-30T06:34:30.343Z,55.43
2019-05-30T06:36:50.155Z,54.70
2019-05-30T06:39:19.563Z,55.79
2019-05-30T06:41:48.976Z,53.12
2019-05-30T06:44:19.789Z,52.67
2019-05-30T06:46:49.279Z,52.81
2019-05-30T06:49:18.682Z,52.65
2019-05-30T06:51:48.109Z,51.03
2019-05-30T06:54:17.508Z,50.50
2019-05-30T06:56:46.925Z,48.85
2019-05-30T06:59:16.331Z,49.03
2019-05-30T07:01:45.752Z,49.73
2019-05-30T07:04:15.709Z,49.83
2019-05-30T07:06:45.675Z,50.39
2019-05-30T07:09:15.338Z,51.51
2019-05-30T07:11:44.757Z,53.34
2019-05-30T07:14:14.235Z,55.52
2019-05-30T07:16:43.677Z,55.02
2019-05-30T07:19:13.085Z,55.61
2019-05-30T07:21:42.477Z,55.74
2019-05-30T07:24:11.909Z,56.19
2019-05-30T07:26:41.301Z,56.49
2019-05-30T07:29:10.796Z,56.79
2019-05-30T07:31:40.278Z,56.72
2019-05-30T07:34:09.718Z,56.48
2019-05-30T07:36:39.112Z,56.47
2019-05-30T07:39:09.259Z,56.30
2019-05-30T07:41:39.129Z,57.49
2019-05-30T07:44:08.633Z,57.35
2019-05-30T07:46:38.013Z,57.76
2019-05-30T07:49:07.430Z,56.79
2019-05-30T07:51:36.940Z,56.52
2019-05-30T07:54:06.540Z,56.54
2019-05-30T07:56:37.874Z,56.40
2019-05-30T07:59:07.152Z,56.75
2019-05-30T08:01:36.565Z,56.38
2019-05-30T08:04:06.115Z,56.29
2019-05-30T08:06:35.794Z,56.31
2019-05-30T08:09:07.059Z,55.29
2019-05-30T08:11:36.465Z,54.84
2019-05-30T08:14:05.958Z,53.46
2019-05-30T08:16:35.544Z,53.39
2019-05-30T08:19:05.120Z,53.07
2019-05-30T08:21:34.524Z,53.26
2019-05-30T08:24:04.000Z,51.24
2019-05-30T08:26:34.325Z,52.78
2019-05-30T08:29:03.855Z,52.33
2019-05-30T08:31:34.512Z,50.53
2019-05-30T08:34:04.220Z,50.71
2019-05-30T08:36:33.620Z,51.79
2019-05-30T08:39:03.048Z,51.54
2019-05-30T08:41:33.208Z,51.44
2019-05-30T08:44:02.696Z,51.11
2019-05-30T08:46:32.345Z,50.71
2019-05-30T08:49:02.005Z,50.66
2019-05-30T08:51:32.146Z,51.38
2019-05-30T08:54:01.633Z,50.74
2019-05-30T08:56:32.705Z,49.11
2019-05-30T08:59:02.152Z,49.35
2019-05-30T09:01:31.606Z,48.49
2019-05-30T09:04:01.093Z,49.86
2019-05-30T09:06:30.497Z,49.62
2019-05-30T09:08:59.915Z,49.16
2019-05-30T09:11:29.314Z,48.53
2019-05-30T09:13:58.782Z,46.76
2019-05-30T09:16:28.283Z,48.13
2019-05-30T09:18:57.705Z,45.94
2019-05-30T09:21:27.093Z,46.80
2019-05-30T09:24:00.412Z,44.63
2019-05-30T09:26:27.617Z,43.72
2019-05-30T09:28:57.027Z,43.20
2019-05-30T09:31:31.041Z,44.08
2019-05-30T09:34:00.475Z,43.04
2019-05-30T09:36:29.865Z,44.63
2019-05-30T09:38:59.562Z,44.17
2019-05-30T09:41:28.955Z,43.22
2019-05-30T09:43:58.400Z,42.12
2019-05-30T09:46:27.794Z,42.60
2019-05-30T09:48:57.407Z,41.56
2019-05-30T09:51:26.794Z,40.63
2019-05-30T09:53:56.257Z,39.44
2019-05-30T09:56:25.662Z,38.40
2019-05-30T09:58:55.085Z,38.11
2019-05-30T10:01:24.567Z,38.19
2019-05-30T10:03:54.006Z,37.44
2019-05-30T10:06:29.365Z,37.30
2019-05-30T10:08:54.779Z,37.87
2019-05-30T10:11:24.191Z,37.56
2019-05-30T10:13:53.646Z,37.60
2019-05-30T10:16:23.078Z,38.02
2019-05-30T10:18:52.913Z,38.71
2019-05-30T10:21:22.356Z,37.49
2019-05-30T10:23:52.520Z,36.73
2019-05-30T10:26:23.027Z,36.32
2019-05-30T10:28:53.360Z,36.32
2019-05-30T10:31:22.837Z,36.70
2019-05-30T10:33:53.018Z,35.87
2019-05-30T10:36:22.806Z,35.89
2019-05-30T10:38:52.339Z,36.39
2019-05-30T10:41:21.813Z,35.73
2019-05-30T10:43:51.290Z,34.33
2019-05-30T10:46:20.722Z,33.46
2019-05-30T10:48:50.971Z,34.69
2019-05-30T10:51:20.547Z,36.47
2019-05-30T10:53:50.850Z,38.00
2019-05-30T10:56:21.150Z,39.34
2019-05-30T10:58:50.794Z,39.81
2019-05-30T11:01:20.322Z,38.96
2019-05-30T11:03:50.411Z,39.44
2019-05-30T11:06:23.169Z,40.29
2019-05-30T11:08:54.802Z,40.51
2019-05-30T11:11:24.253Z,39.87
2019-05-30T11:13:53.655Z,40.29
2019-05-30T11:16:23.079Z,41.00
2019-05-30T11:18:53.182Z,41.91
2019-05-30T11:21:23.775Z,42.66
2019-05-30T11:23:54.353Z,43.01
2019-05-30T11:26:23.882Z,43.42
2019-05-30T11:28:53.321Z,44.69
2019-05-30T11:31:22.738Z,46.11
2019-05-30T11:33:52.864Z,46.51
2019-05-30T11:36:22.363Z,45.81
2019-05-30T11:38:52.468Z,46.17
2019-05-30T11:41:23.129Z,46.89
2019-05-30T11:43:53.547Z,47.00
2019-05-30T11:46:23.773Z,46.88
2019-05-30T11:48:53.667Z,47.55
2019-05-30T11:51:23.101Z,47.76
2019-05-30T11:53:52.473Z,48.12
2019-05-30T11:56:21.897Z,46.65
2019-05-30T11:58:51.957Z,45.58
2019-05-30T12:01:21.513Z,45.45
2019-05-30T12:03:52.422Z,43.46
2019-05-30T12:06:22.066Z,41.99
2019-05-30T12:08:52.715Z,39.68
2019-05-30T12:11:22.239Z,37.57
2019-05-30T12:13:52.182Z,36.77
2019-05-30T12:16:22.787Z,35.31
2019-05-30T12:18:53.846Z,36.39
2019-05-30T12:21:23.475Z,36.47
2019-05-30T12:23:54.417Z,37.53
2019-05-30T12:26:23.973Z,39.02
2019-05-30T12:28:54.135Z,39.24
2019-05-30T12:31:23.649Z,40.07
2019-05-30T12:33:54.111Z,40.22
2019-05-30T12:36:23.660Z,39.35
2019-05-30T12:38:54.222Z,39.17
2019-05-30T12:41:23.769Z,39.19
2019-05-30T12:43:53.152Z,39.64
2019-05-30T12:46:22.728Z,39.27
2019-05-30T12:48:53.279Z,38.45
2019-05-30T12:51:22.764Z,39.74
2019-05-30T12:53:52.182Z,39.04
2019-05-30T12:56:21.593Z,39.39
2019-05-30T12:58:50.986Z,38.96
2019-05-30T13:01:20.480Z,38.65
2019-05-30T13:03:49.898Z,40.79
2019-05-30T13:06:19.324Z,41.88
2019-05-30T13:08:48.726Z,43.03
2019-05-30T13:11:18.140Z,44.26
2019-05-30T13:13:47.567Z,44.61
2019-05-30T13:16:16.999Z,46.02
2019-05-30T13:18:46.432Z,45.21
2019-05-30T13:21:15.858Z,43.57
2019-05-30T13:23:45.335Z,42.05
2019-05-30T13:26:14.757Z,41.82
2019-05-30T13:28:44.162Z,41.76
2019-05-30T13:31:13.568Z,41.16
2019-05-30T13:33:42.986Z,40.88
2019-05-30T13:36:12.413Z,40.86
2019-05-30T13:38:41.815Z,41.85
2019-05-30T13:41:11.229Z,41.38
2019-05-30T13:43:40.697Z,42.21
2019-05-30T13:46:10.103Z,42.39
2019-05-30T13:48:39.618Z,42.53
2019-05-30T13:51:09.195Z,42.65
2019-05-30T13:53:39.076Z,43.62
2019-05-30T13:56:09.685Z,44.18
2019-05-30T13:58:39.251Z,44.96
2019-05-30T14:01:12.353Z,45.61
2019-05-30T14:03:39.945Z,44.91
2019-05-30T14:06:11.311Z,45.20
2019-05-30T14:08:41.865Z,44.57
2019-05-30T14:11:11.522Z,44.02
2019-05-30T14:13:40.938Z,42.91
2019-05-30T14:16:11.105Z,43.59
2019-05-30T14:18:40.595Z,44.39
2019-05-30T14:21:11.457Z,45.48
2019-05-30T14:23:40.923Z,44.99
2019-05-30T14:26:11.473Z,45.79
2019-05-30T14:28:40.997Z,46.24
2019-05-30T14:31:11.918Z,46.57
2019-05-30T14:33:41.513Z,47.00
2019-05-30T14:36:13.345Z,46.17
2019-05-30T14:38:57.187Z,45.79
2019-05-30T14:41:13.535Z,46.30
2019-05-30T14:43:42.955Z,46.71
2019-05-30T14:46:12.493Z,45.60
2019-05-30T14:48:41.839Z,44.51
2019-05-30T14:51:11.257Z,44.26
2019-05-30T14:53:40.779Z,44.75
2019-05-30T14:56:11.177Z,44.01
2019-05-30T14:58:40.653Z,44.50
2019-05-30T15:01:11.201Z,45.28
2019-05-30T15:03:40.597Z,46.31
2019-05-30T15:06:12.918Z,46.85
2019-05-30T15:08:41.286Z,45.98
2019-05-30T15:11:11.705Z,46.35
2019-05-30T15:13:41.274Z,46.23
2019-05-30T15:16:10.919Z,45.72
2019-05-30T15:18:40.444Z,45.50
2019-05-30T15:21:10.347Z,45.34
2019-05-30T15:23:39.859Z,45.09
2019-05-30T15:26:09.983Z,45.70
2019-05-30T15:28:39.456Z,45.82
2019-05-30T15:31:08.857Z,46.19
2019-05-30T15:33:40.420Z,45.75
2019-05-30T15:36:10.722Z,46.16
2019-05-30T15:38:40.080Z,45.84
2019-05-30T15:41:09.535Z,46.33
2019-05-30T15:43:38.955Z,45.61
2019-05-30T15:46:09.728Z,45.63
2019-05-30T15:48:39.141Z,46.25
2019-05-30T15:51:08.572Z,46.16
2019-05-30T15:53:37.994Z,46.42
2019-05-30T15:56:07.398Z,46.86
2019-05-30T15:58:36.797Z,46.39
2019-05-30T16:01:06.283Z,46.91
2019-05-30T16:03:35.898Z,46.37
2019-05-30T16:06:05.436Z,47.41
2019-05-30T16:08:34.841Z,46.93
2019-05-30T16:11:04.407Z,45.90
2019-05-30T16:13:33.812Z,45.81
2019-05-30T16:16:03.208Z,46.74
2019-05-30T16:18:32.628Z,46.44
2019-05-30T16:21:02.016Z,47.33
2019-05-30T16:23:32.294Z,47.65
2019-05-30T16:26:01.705Z,48.18
2019-05-30T16:28:31.128Z,47.67
2019-05-30T16:31:00.553Z,47.90
2019-05-30T16:33:30.075Z,48.03
2019-05-30T16:35:59.557Z,48.22
2019-05-30T16:38:28.979Z,48.64
2019-05-30T16:41:02.056Z,49.73
2019-05-30T16:43:41.782Z,49.99
2019-05-30T16:46:20.493Z,50.18
2019-05-30T16:48:46.105Z,50.52
2019-05-30T16:51:17.167Z,50.42
2019-05-30T16:53:46.573Z,49.96
2019-05-30T16:56:17.307Z,50.72
2019-05-30T16:58:46.836Z,51.30
2019-05-30T17:01:16.235Z,52.22
2019-05-30T17:03:45.661Z,52.13
2019-05-30T17:06:15.889Z,52.48
2019-05-30T17:08:45.389Z,52.65
2019-05-30T17:11:15.304Z,52.98
2019-05-30T17:13:44.997Z,53.35
2019-05-30T17:16:15.871Z,52.98
2019-05-30T17:18:45.275Z,53.02
2019-05-30T17:21:14.673Z,52.89
2019-05-30T17:23:44.118Z,53.33
2019-05-30T17:26:13.514Z,52.98
2019-05-30T17:28:42.924Z,52.84
2019-05-30T17:31:12.339Z,53.23
2019-05-30T17:33:41.754Z,53.51
2019-05-30T17:36:11.234Z,53.73
2019-05-30T17:38:40.644Z,54.03
2019-05-30T17:41:10.133Z,54.29
2019-05-30T17:43:39.560Z,53.70
2019-05-30T17:46:08.968Z,53.67
2019-05-30T17:48:38.393Z,53.95
2019-05-30T17:51:07.804Z,53.92
2019-05-30T17:53:37.464Z,53.71
2019-05-30T17:56:06.939Z,53.87
2019-05-30T17:58:36.350Z,53.58
2019-05-30T18:01:05.758Z,54.29
2019-05-30T18:03:35.168Z,54.31
2019-05-30T18:06:04.759Z,54.83
2019-05-30T18:08:34.178Z,55.18
2019-05-30T18:11:03.663Z,55.53
2019-05-30T18:13:33.242Z,55.44
2019-05-30T18:16:02.638Z,55.90
2019-05-30T18:18:32.112Z,55.90
2019-05-30T18:21:01.518Z,56.50
2019-05-30T18:23:31.763Z,56.34
2019-05-30T18:26:01.204Z,56.30
2019-05-30T18:28:30.622Z,56.34
2019-05-30T18:31:00.106Z,56.31
2019-05-30T18:33:30.286Z,56.29
2019-05-30T18:35:59.828Z,56.81
2019-05-30T18:38:30.394Z,56.87
2019-05-30T18:41:11.086Z,56.80
2019-05-30T18:43:31.081Z,57.10
2019-05-30T18:46:00.867Z,57.14
2019-05-30T18:48:31.468Z,57.33
2019-05-30T18:51:01.061Z,58.10
2019-05-30T18:53:30.484Z,58.52
2019-05-30T18:55:59.948Z,58.76
2019-05-30T18:58:29.354Z,59.44
2019-05-30T19:00:58.768Z,58.99
2019-05-30T19:03:28.552Z,58.85
2019-05-30T19:05:58.028Z,58.89
2019-05-30T19:08:27.860Z,58.48
2019-05-30T19:10:57.443Z,58.62
2019-05-30T19:13:26.911Z,58.78
2019-05-30T19:15:56.272Z,59.57
2019-05-30T19:18:25.683Z,59.61
2019-05-30T19:20:55.097Z,59.90
2019-05-30T19:23:25.896Z,60.16
2019-05-30T19:25:55.460Z,60.44
2019-05-30T19:28:24.850Z,60.36
2019-05-30T19:30:54.271Z,60.92
2019-05-30T19:33:23.669Z,61.47
2019-05-30T19:35:53.082Z,62.00
2019-05-30T19:38:22.480Z,62.38
2019-05-30T19:40:51.898Z,62.75
2019-05-30T19:43:21.363Z,62.79
2019-05-30T19:45:50.902Z,63.15
2019-05-30T19:48:20.305Z,63.62
2019-05-30T19:50:49.716Z,64.07
2019-05-30T19:53:19.103Z,64.29
2019-05-30T19:55:48.520Z,64.74
2019-05-30T19:58:17.911Z,64.74
2019-05-30T20:00:57.776Z,65.12
2019-05-30T20:03:18.441Z,64.81
2019-05-30T20:05:48.234Z,65.17
2019-05-30T20:08:17.642Z,65.34
2019-05-30T20:10:47.065Z,65.51
2019-05-30T20:13:16.470Z,65.80
2019-05-30T20:15:45.905Z,65.87
2019-05-30T20:18:15.312Z,65.86
2019-05-30T20:20:56.763Z,65.87
2019-05-30T20:23:15.845Z,66.28
2019-05-30T20:25:46.114Z,66.63
2019-05-30T20:28:15.660Z,67.01
2019-05-30T20:30:45.066Z,67.23
2019-05-30T20:33:14.462Z,67.50
2019-05-30T20:35:44.656Z,67.38
2019-05-30T20:38:14.138Z,67.45
2019-05-30T20:40:43.581Z,67.36
2019-05-30T20:43:13.066Z,67.51
2019-05-30T20:45:47.190Z,67.75
2019-05-30T20:48:13.911Z,67.75
2019-05-30T20:50:43.333Z,67.76
2019-05-30T20:53:12.829Z,67.89
2019-05-30T20:55:42.593Z,67.81
2019-05-30T20:58:12.055Z,67.78
2019-05-30T21:00:42.188Z,68.08
2019-05-30T21:03:11.811Z,67.93
2019-05-30T21:05:44.126Z,68.18
2019-05-30T21:08:13.679Z,67.84
2019-05-30T21:10:45.093Z,67.57
2019-05-30T21:13:15.626Z,67.23
2019-05-30T21:15:46.661Z,67.08
2019-05-30T21:18:18.243Z,66.84
2019-05-30T21:20:47.812Z,66.71
2019-05-30T21:23:17.213Z,66.53
2019-05-30T21:25:47.208Z,66.58
2019-05-30T21:28:16.829Z,66.42
2019-05-30T21:30:47.387Z,66.45
2019-05-30T21:33:17.197Z,66.50
2019-05-30T21:35:48.106Z,66.57
2019-05-30T21:38:17.696Z,66.62
2019-05-30T21:40:48.386Z,66.51
2019-05-30T21:43:18.104Z,66.48
2019-05-30T21:45:48.855Z,66.63
2019-05-30T21:48:18.381Z,66.47
2019-05-30T21:50:49.118Z,66.12
2019-05-30T21:53:18.893Z,66.45
2019-05-30T21:55:48.312Z,66.74
2019-05-30T21:58:17.719Z,66.80
2019-05-30T22:00:50.993Z,66.96
2019-05-30T22:03:20.498Z,66.79
2019-05-30T22:05:51.965Z,66.85
2019-05-30T22:08:21.000Z,67.00
2019-05-30T22:10:51.621Z,66.95
2019-05-30T22:13:21.231Z,67.02
2019-05-30T22:15:52.064Z,67.08
2019-05-30T22:18:21.580Z,67.59
2019-05-30T22:20:52.118Z,67.61
2019-05-30T22:23:21.574Z,67.70
2019-05-30T22:25:51.031Z,67.59
2019-05-30T22:28:20.423Z,67.82
2019-05-30T22:30:50.624Z,68.20
2019-05-30T22:33:20.462Z,68.26
2019-05-30T22:35:50.996Z,68.49
2019-05-30T22:38:20.473Z,68.87
2019-05-30T22:40:50.052Z,68.90
2019-05-30T22:43:25.198Z,69.00
2019-05-30T22:45:50.573Z,68.46
2019-05-30T22:48:19.977Z,68.29
2019-05-30T22:50:49.394Z,67.84
2019-05-30T22:53:18.782Z,67.89
2019-05-30T22:55:49.143Z,67.81
2019-05-30T22:58:18.688Z,67.75
2019-05-30T23:00:48.079Z,68.31
2019-05-30T23:03:17.472Z,68.43
2019-05-30T23:05:47.268Z,68.56
2019-05-30T23:08:16.677Z,68.45
2019-05-30T23:10:46.084Z,68.41
2019-05-30T23:13:15.488Z,68.76
2019-05-30T23:15:46.066Z,68.99
2019-05-30T23:18:15.536Z,69.07
2019-05-30T23:20:44.948Z,69.10
2019-05-30T23:23:14.349Z,69.31
2019-05-30T23:25:43.768Z,69.66
2019-05-30T23:28:13.168Z,69.34
2019-05-30T23:30:42.597Z,69.39
2019-05-30T23:33:11.994Z,69.45
2019-05-30T23:35:41.429Z,69.49
2019-05-30T23:38:10.825Z,69.47
2019-05-30T23:40:40.252Z,69.39
2019-05-30T23:43:09.662Z,69.39
2019-05-30T23:45:39.066Z,69.70
2019-05-30T23:48:08.473Z,69.74
2019-05-30T23:50:37.867Z,69.53
2019-05-30T23:53:07.285Z,70.16
2019-05-30T23:55:36.765Z,70.35
2019-05-30T23:58:06.193Z,70.54
